National Weather Service United States Department of Commerce

Low Elevation Snow in the West; Stormy Weather Followed by Snow in the Northeast

Another cold weather system sliding south along the west coast will bring rain with some low elevation snow to the western states. Snow will be as low as 300 feet in western Washington. A vigorous cold front moving through the Northeast will bring heavy rain and thunderstorms followed by areas of snow. Rain-on-snow flooding is possible in portions of New England and New York State. Read More >

A80 TRACON Summary / KATL TAF
ATL TRACON Summary:
High pressure will continue to build over the airspace, providing VFR conditions under clear skies. Surface winds will be northwest at 10-15kts. Expect 60-80kt compression winds as aircraft transition from downwind to final approach in West operations. Flight Hazards in the TRACON: LGT-MOD Turbulence below 120.

Updated: 2/25/2017 8:15 PM
ATL Terminal Aerodrome Forecast:
 
FTUS80 KATL 260733 AAA
KATL 260732Z 2608/2712 32007KT P6SM SKC
     FM261700 VRB03KT P6SM SKC
     FM262200 16005KT P6SM SCT250
     FM270800 11004KT P6SM BKN150

ATL TRACON Area Remark:
NONE.
Convective Gate Forecast / Icing Gate Forecast / Vertical Wind Profile (click on image to enlarge)
Convective Gate Forecast Icing Gate Forecast

AIRMETs & SIGMETS/ Southeast Radar loop / Satellite Image (click on image to enlarge)

Southeast Radar Loop